createdAt,value
2022-10-21T00:00:09.735Z,25.63
2022-10-21T00:02:40.450Z,33.90
2022-10-21T00:05:08.025Z,25.37
2022-10-21T00:07:35.260Z,27.20
2022-10-21T00:10:02.858Z,27.40
2022-10-21T00:12:30.134Z,25.33
2022-10-21T00:14:57.350Z,31.30
2022-10-21T00:17:24.312Z,29.87
2022-10-21T00:19:51.287Z,27.67
2022-10-21T00:22:18.015Z,31.77
2022-10-21T00:24:44.676Z,23.67
2022-10-21T00:27:11.449Z,31.13
2022-10-21T00:29:38.280Z,27.43
2022-10-21T00:32:05.121Z,33.40
2022-10-21T00:34:32.405Z,33.37
2022-10-21T00:36:59.285Z,24.17
2022-10-21T00:39:26.031Z,27.83
2022-10-21T00:41:52.804Z,26.03
2022-10-21T00:44:19.504Z,25.73
2022-10-21T00:46:53.954Z,26.93
2022-10-21T00:49:40.792Z,29.33
2022-10-21T00:52:13.344Z,31.13
2022-10-21T00:54:42.153Z,26.33
2022-10-21T00:57:09.696Z,26.33
2022-10-21T00:59:51.584Z,28.87
2022-10-21T01:02:18.637Z,24.13
2022-10-21T01:04:46.285Z,29.60
2022-10-21T01:07:13.232Z,26.27
2022-10-21T01:09:39.935Z,27.20
2022-10-21T01:12:30.037Z,28.93
2022-10-21T01:18:11.158Z,34.40
2022-10-21T01:21:03.248Z,27.47
2022-10-21T01:23:43.992Z,25.30
2022-10-21T01:26:31.906Z,26.73
2022-10-21T01:29:16.933Z,30.37
2022-10-21T01:31:46.929Z,30.47
2022-10-21T01:34:28.926Z,25.17
2022-10-21T01:37:03.271Z,28.23
2022-10-21T01:39:45.199Z,28.83
2022-10-21T01:42:27.705Z,32.87
2022-10-21T01:45:03.379Z,28.93
2022-10-21T01:47:37.618Z,29.97
2022-10-21T01:50:22.555Z,27.00
2022-10-21T01:52:52.398Z,30.10
2022-10-21T01:55:23.361Z,27.63
2022-10-21T01:57:54.641Z,27.87
2022-10-21T02:00:21.485Z,25.90
2022-10-21T02:02:49.605Z,26.50
2022-10-21T02:05:22.827Z,28.20
2022-10-21T02:07:49.988Z,26.63
2022-10-21T02:10:18.786Z,26.30
2022-10-21T02:12:49.105Z,27.13
2022-10-21T02:15:17.836Z,28.30
2022-10-21T02:17:51.810Z,27.17
2022-10-21T02:20:19.357Z,27.17
2022-10-21T02:22:47.964Z,25.33
2022-10-21T02:25:22.486Z,38.87
2022-10-21T02:27:50.777Z,24.83
2022-10-21T02:30:17.775Z,24.03
2022-10-21T02:32:57.802Z,21.67
2022-10-21T02:35:30.545Z,21.73
2022-10-21T02:38:05.955Z,32.13
2022-10-21T02:40:55.823Z,28.07
2022-10-21T02:43:30.628Z,20.97
2022-10-21T02:46:05.473Z,18.57
2022-10-21T02:48:37.027Z,21.30
2022-10-21T02:51:05.685Z,24.20
2022-10-21T02:53:33.736Z,24.83
2022-10-21T02:56:02.033Z,30.10
2022-10-21T02:58:29.385Z,21.93
2022-10-21T03:00:56.248Z,28.90
2022-10-21T03:03:23.102Z,22.17
2022-10-21T03:05:49.820Z,22.53
2022-10-21T03:08:16.708Z,22.43
2022-10-21T03:10:43.617Z,19.87
2022-10-21T03:13:10.362Z,23.27
2022-10-21T03:15:37.067Z,23.17
2022-10-21T03:18:03.743Z,19.63
2022-10-21T03:20:30.443Z,20.60
2022-10-21T03:22:57.144Z,20.90
2022-10-21T03:25:23.877Z,17.63
2022-10-21T03:27:51.223Z,19.73
2022-10-21T03:30:18.279Z,18.13
2022-10-21T03:32:45.020Z,18.40
2022-10-21T03:35:11.861Z,21.97
2022-10-21T03:37:38.573Z,24.60
2022-10-21T03:40:08.661Z,23.00
2022-10-21T03:42:38.534Z,18.43
2022-10-21T03:45:05.818Z,19.77
2022-10-21T03:47:32.631Z,17.57
2022-10-21T03:49:59.374Z,19.43
2022-10-21T03:52:26.097Z,19.43
2022-10-21T03:54:52.785Z,19.57
2022-10-21T03:57:19.558Z,19.07
2022-10-21T03:59:46.257Z,19.83
2022-10-21T04:02:13.036Z,15.97
2022-10-21T04:04:39.748Z,12.63
2022-10-21T04:07:06.470Z,13.73
2022-10-21T04:09:33.307Z,12.90
2022-10-21T04:12:00.054Z,13.70
2022-10-21T04:14:27.344Z,18.53
2022-10-21T04:17:06.501Z,16.50
2022-10-21T04:19:33.877Z,18.63
2022-10-21T04:22:00.595Z,25.67
2022-10-21T04:24:27.327Z,21.10
2022-10-21T04:26:54.021Z,14.83
2022-10-21T04:29:20.887Z,22.13
2022-10-21T04:31:47.726Z,18.33
2022-10-21T04:34:14.508Z,24.53
2022-10-21T04:36:41.247Z,18.27
2022-10-21T04:39:08.187Z,19.00
2022-10-21T04:41:34.996Z,17.53
2022-10-21T04:44:02.628Z,21.43
2022-10-21T04:46:29.393Z,14.57
2022-10-21T04:48:56.165Z,16.80
2022-10-21T04:51:23.455Z,19.50
2022-10-21T04:53:50.250Z,28.03
2022-10-21T04:56:17.043Z,20.07
2022-10-21T04:58:43.824Z,24.27
2022-10-21T05:01:10.933Z,24.63
2022-10-21T05:03:37.930Z,27.63
2022-10-21T05:06:05.022Z,20.33
2022-10-21T05:08:31.873Z,27.60
2022-10-21T05:11:00.750Z,21.77
2022-10-21T05:13:28.850Z,26.73
2022-10-21T05:16:03.100Z,22.97
2022-10-21T05:18:30.760Z,21.80
2022-10-21T05:20:57.730Z,19.80
2022-10-21T05:23:25.880Z,20.47
2022-10-21T05:25:52.939Z,25.63
2022-10-21T05:28:20.651Z,21.07
2022-10-21T05:30:47.474Z,17.47
2022-10-21T05:33:14.360Z,19.90
2022-10-21T05:35:41.287Z,22.33
2022-10-21T05:38:08.017Z,23.53
2022-10-21T05:40:34.871Z,25.17
2022-10-21T05:43:01.641Z,22.33
2022-10-21T05:45:28.451Z,24.07
2022-10-21T05:47:55.321Z,25.03
2022-10-21T05:50:22.080Z,24.27
2022-10-21T05:52:48.843Z,32.10
2022-10-21T05:55:15.802Z,23.93
2022-10-21T05:57:42.659Z,21.33
2022-10-21T06:00:10.247Z,20.07
2022-10-21T06:02:37.208Z,22.30
2022-10-21T06:05:04.552Z,17.97
2022-10-21T06:07:31.304Z,18.83
2022-10-21T06:09:58.060Z,16.83
2022-10-21T06:12:24.915Z,16.77
2022-10-21T06:14:51.696Z,17.77
2022-10-21T06:17:19.470Z,15.93
2022-10-21T06:19:50.051Z,20.20
2022-10-21T06:22:17.865Z,20.67
2022-10-21T06:24:45.617Z,20.63
2022-10-21T06:27:12.527Z,16.47
2022-10-21T06:29:39.599Z,14.87
2022-10-21T06:32:06.324Z,16.27
2022-10-21T06:34:33.103Z,17.53
2022-10-21T06:36:59.828Z,19.70
2022-10-21T06:39:26.495Z,15.60
2022-10-21T06:41:53.178Z,14.40
2022-10-21T06:44:39.396Z,16.63
2022-10-21T06:47:06.083Z,12.83
2022-10-21T06:49:32.778Z,15.07
2022-10-21T06:51:59.591Z,16.50
2022-10-21T06:54:26.417Z,16.43
2022-10-21T06:56:53.202Z,14.90
2022-10-21T06:59:20.164Z,19.60
2022-10-21T07:01:59.868Z,13.20
2022-10-21T07:04:27.644Z,15.50
2022-10-21T07:06:54.369Z,15.70
2022-10-21T07:09:21.589Z,14.33
2022-10-21T07:11:48.575Z,16.33
2022-10-21T07:14:15.408Z,13.50
2022-10-21T07:16:42.244Z,15.60
2022-10-21T07:19:10.666Z,18.73
2022-10-21T07:21:37.477Z,21.03
2022-10-21T07:24:04.303Z,19.63
2022-10-21T07:26:33.199Z,15.83
2022-10-21T07:29:01.082Z,17.20
2022-10-21T07:31:31.037Z,22.23
2022-10-21T07:33:59.900Z,15.80
2022-10-21T07:36:29.230Z,22.13
2022-10-21T07:38:59.227Z,24.73
2022-10-21T07:41:29.743Z,20.63
2022-10-21T07:43:57.422Z,22.03
2022-10-21T07:46:24.358Z,20.20
2022-10-21T07:48:51.700Z,21.33
2022-10-21T07:51:26.931Z,18.60
2022-10-21T07:53:58.662Z,20.67
2022-10-21T07:56:31.564Z,20.57
2022-10-21T07:58:58.372Z,20.77
2022-10-21T08:01:25.531Z,23.27
2022-10-21T08:03:54.865Z,23.27
2022-10-21T08:06:23.662Z,19.10
2022-10-21T08:08:50.568Z,19.27
2022-10-21T08:11:23.598Z,22.37
2022-10-21T08:13:50.414Z,18.97
2022-10-21T08:16:17.419Z,22.90
2022-10-21T08:18:44.179Z,23.17
2022-10-21T08:21:11.140Z,21.63
2022-10-21T08:23:38.230Z,21.23
2022-10-21T08:26:08.586Z,20.57
2022-10-21T08:28:35.288Z,24.97
2022-10-21T08:31:06.962Z,23.83
2022-10-21T08:33:34.755Z,21.63
2022-10-21T08:36:10.093Z,21.80
2022-10-21T08:38:36.861Z,21.40
2022-10-21T08:41:25.932Z,23.73
2022-10-21T08:43:54.360Z,16.20
2022-10-21T08:46:26.992Z,19.97
2022-10-21T08:49:02.667Z,18.63
2022-10-21T08:51:37.685Z,19.83
2022-10-21T08:54:12.846Z,18.87
2022-10-21T08:56:40.441Z,19.67
2022-10-21T08:59:20.554Z,17.53
2022-10-21T09:01:59.869Z,26.73
2022-10-21T09:04:53.699Z,19.13
2022-10-21T09:07:32.603Z,25.07
2022-10-21T09:10:04.806Z,23.20
2022-10-21T09:12:58.738Z,18.90
2022-10-21T09:15:53.656Z,19.03
2022-10-21T09:19:05.167Z,20.53
2022-10-21T09:22:01.513Z,22.13
2022-10-21T09:24:52.496Z,19.70
2022-10-21T09:27:27.024Z,15.47
2022-10-21T09:30:07.312Z,20.73
2022-10-21T09:32:40.447Z,18.10
2022-10-21T09:35:22.547Z,22.83
2022-10-21T09:37:57.641Z,21.90
2022-10-21T09:40:28.287Z,18.60
2022-10-21T09:42:58.867Z,19.77
2022-10-21T09:45:32.203Z,16.87
2022-10-21T09:48:10.506Z,18.20
2022-10-21T09:50:38.137Z,21.73
2022-10-21T09:53:11.728Z,18.50
2022-10-21T09:55:40.303Z,17.20
2022-10-21T09:58:07.201Z,14.77
2022-10-21T10:00:50.043Z,20.57
2022-10-21T10:03:31.412Z,16.60
2022-10-21T10:05:58.705Z,15.27
2022-10-21T10:08:30.797Z,11.67
2022-10-21T10:11:10.834Z,12.87
2022-10-21T10:13:40.872Z,16.83
2022-10-21T10:16:19.464Z,13.70
2022-10-21T10:18:46.235Z,21.63
2022-10-21T10:21:13.985Z,18.30
2022-10-21T10:23:55.500Z,15.93
2022-10-21T10:26:32.675Z,15.00
2022-10-21T10:29:08.396Z,15.20
2022-10-21T10:31:36.917Z,19.10
2022-10-21T10:34:07.610Z,11.43
2022-10-21T10:36:40.079Z,16.77
2022-10-21T10:39:19.497Z,14.83
2022-10-21T10:41:49.467Z,12.97
2022-10-21T10:44:28.064Z,14.30
2022-10-21T10:46:57.322Z,15.30
2022-10-21T10:49:26.640Z,16.17
2022-10-21T10:52:11.682Z,14.67
2022-10-21T10:54:40.465Z,9.90
2022-10-21T10:57:29.954Z,16.93
2022-10-21T11:00:19.979Z,12.80
2022-10-21T11:03:06.209Z,14.73
2022-10-21T11:05:46.817Z,13.87
2022-10-21T11:08:19.432Z,10.13
2022-10-21T11:11:11.297Z,12.83
2022-10-21T11:13:42.082Z,11.60
2022-10-21T11:16:59.017Z,12.40
2022-10-21T11:19:35.272Z,9.93
2022-10-21T11:22:43.650Z,14.10
2022-10-21T11:25:36.215Z,8.70
2022-10-21T11:28:14.430Z,9.97
2022-10-21T11:31:05.869Z,6.47
2022-10-21T11:34:04.592Z,8.27
2022-10-21T11:36:40.656Z,9.20
2022-10-21T11:39:21.612Z,13.17
2022-10-21T11:41:55.308Z,9.97
2022-10-21T11:45:30.317Z,7.40
2022-10-21T11:48:16.911Z,11.70
2022-10-21T11:50:50.294Z,6.90
2022-10-21T11:53:39.978Z,6.40
2022-10-21T11:56:06.816Z,7.67
2022-10-21T11:58:48.643Z,8.53
2022-10-21T12:01:29.103Z,5.80
2022-10-21T12:04:23.022Z,5.67
2022-10-21T12:06:55.834Z,5.73
2022-10-21T12:09:30.737Z,7.20
2022-10-21T12:12:06.216Z,6.20
2022-10-21T12:14:37.180Z,7.17
2022-10-21T12:17:09.162Z,9.60
2022-10-21T12:19:36.659Z,8.70
2022-10-21T12:22:03.978Z,6.43
2022-10-21T12:24:39.221Z,7.50
2022-10-21T12:27:23.504Z,10.80
2022-10-21T12:30:05.813Z,9.37
2022-10-21T12:33:04.779Z,12.47
2022-10-21T12:36:15.783Z,8.73
2022-10-21T12:38:47.946Z,11.07
2022-10-21T12:41:23.708Z,9.83
2022-10-21T12:44:02.733Z,11.10
2022-10-21T12:46:42.254Z,10.57
2022-10-21T12:49:32.772Z,9.57
2022-10-21T12:52:02.529Z,9.67
2022-10-21T12:54:35.761Z,9.53
2022-10-21T12:57:05.805Z,9.80
2022-10-21T12:59:41.608Z,8.30
2022-10-21T13:02:19.887Z,7.10
2022-10-21T13:04:49.143Z,9.23
2022-10-21T13:07:15.800Z,6.87
2022-10-21T13:10:02.781Z,5.57
2022-10-21T13:12:32.417Z,5.90
2022-10-21T13:15:01.919Z,7.00
2022-10-21T13:17:32.544Z,5.00
2022-10-21T13:20:25.780Z,6.70
2022-10-21T13:23:03.510Z,5.87
2022-10-21T13:25:35.286Z,8.83
2022-10-21T13:28:13.958Z,6.73
2022-10-21T13:30:58.648Z,8.07
2022-10-21T13:33:29.895Z,6.97
2022-10-21T13:36:12.934Z,6.97
2022-10-21T13:38:50.330Z,7.83
2022-10-21T13:41:26.875Z,6.50
2022-10-21T13:44:05.589Z,6.37
2022-10-21T13:46:43.346Z,7.27
2022-10-21T13:49:32.115Z,7.60
2022-10-21T13:51:59.304Z,5.57
2022-10-21T13:54:26.245Z,9.23
2022-10-21T13:56:53.065Z,6.37
2022-10-21T13:59:24.680Z,4.03
2022-10-21T14:01:57.015Z,6.43
2022-10-21T14:04:30.233Z,5.37
2022-10-21T14:07:09.143Z,5.07
2022-10-21T14:09:42.239Z,6.23
2022-10-21T14:12:22.440Z,7.50
2022-10-21T14:14:50.112Z,4.60
2022-10-21T14:17:23.873Z,17.50
2022-10-21T14:19:53.934Z,5.57
2022-10-21T14:22:24.831Z,5.00
2022-10-21T14:24:56.659Z,8.87
2022-10-21T14:27:29.913Z,8.70
2022-10-21T14:29:58.071Z,5.53
2022-10-21T14:32:26.842Z,8.07
2022-10-21T14:35:08.661Z,6.00
2022-10-21T14:37:47.345Z,4.57
2022-10-21T14:40:31.723Z,6.70
2022-10-21T14:43:19.905Z,4.63
2022-10-21T14:45:55.777Z,6.90
2022-10-21T14:48:37.420Z,4.70
2022-10-21T14:51:11.228Z,5.77
2022-10-21T14:53:49.643Z,6.77
2022-10-21T14:56:20.971Z,5.87
2022-10-21T14:58:57.077Z,5.80
2022-10-21T15:01:24.507Z,4.40
2022-10-21T15:03:59.940Z,3.87
2022-10-21T15:06:34.814Z,4.00
2022-10-21T15:09:07.804Z,4.53
2022-10-21T15:11:46.583Z,6.97
2022-10-21T15:14:13.228Z,4.33
2022-10-21T15:16:53.786Z,5.40
2022-10-21T15:19:41.163Z,7.43
2022-10-21T15:22:29.720Z,4.93
2022-10-21T15:25:05.713Z,5.90
2022-10-21T15:27:40.130Z,5.93
2022-10-21T15:30:17.427Z,5.37
2022-10-21T15:32:44.351Z,6.27
2022-10-21T15:35:16.885Z,8.03
2022-10-21T15:37:47.032Z,6.17
2022-10-21T15:40:13.994Z,4.77
2022-10-21T15:42:41.413Z,4.80
2022-10-21T15:45:15.011Z,5.27
2022-10-21T15:47:41.910Z,3.70
2022-10-21T15:50:16.481Z,5.67
2022-10-21T15:52:43.717Z,5.00
2022-10-21T15:55:11.040Z,5.03
2022-10-21T15:57:38.933Z,3.50
2022-10-21T16:00:21.535Z,10.40
2022-10-21T16:02:49.643Z,3.60
2022-10-21T16:05:16.478Z,4.87
2022-10-21T16:07:44.481Z,5.87
2022-10-21T16:10:29.446Z,8.33
2022-10-21T16:12:56.700Z,7.47
2022-10-21T16:15:24.972Z,5.77
2022-10-21T16:17:55.665Z,4.27
2022-10-21T16:20:30.995Z,7.67
2022-10-21T16:23:01.981Z,4.00
2022-10-21T16:25:30.472Z,10.60
2022-10-21T16:27:57.587Z,6.50
2022-10-21T16:30:33.535Z,11.13
2022-10-21T16:33:00.552Z,13.37
2022-10-21T16:35:27.773Z,11.70
2022-10-21T16:37:56.112Z,13.03
2022-10-21T16:40:29.082Z,20.13
2022-10-21T16:42:55.975Z,20.73
2022-10-21T16:45:27.217Z,13.83
2022-10-21T16:47:56.930Z,13.20
2022-10-21T16:50:32.023Z,10.07
2022-10-21T16:52:58.831Z,13.60
2022-10-21T16:55:25.608Z,13.60
2022-10-21T16:57:52.351Z,12.57
2022-10-21T17:00:19.157Z,12.03
2022-10-21T17:02:49.201Z,11.97
2022-10-21T17:05:16.229Z,9.83
2022-10-21T17:07:43.291Z,12.20
2022-10-21T17:10:10.879Z,18.27
2022-10-21T17:12:37.717Z,8.93
2022-10-21T17:15:05.294Z,12.03
2022-10-21T17:17:32.459Z,8.43
2022-10-21T17:19:59.261Z,10.07
2022-10-21T17:22:26.031Z,8.70
2022-10-21T17:24:52.719Z,7.10
2022-10-21T17:27:19.865Z,9.20
2022-10-21T17:29:46.658Z,10.30
2022-10-21T17:32:13.452Z,8.10
2022-10-21T17:34:41.020Z,7.03
2022-10-21T17:37:11.209Z,14.03
2022-10-21T17:39:38.209Z,7.20
2022-10-21T17:42:04.985Z,7.20
2022-10-21T17:44:31.776Z,8.40
2022-10-21T17:46:58.581Z,7.70
2022-10-21T17:49:26.476Z,10.47
2022-10-21T17:51:53.471Z,9.23
2022-10-21T17:54:24.191Z,11.37
2022-10-21T17:56:56.546Z,11.03
2022-10-21T17:59:23.264Z,9.37
2022-10-21T18:01:50.032Z,6.63
2022-10-21T18:04:16.765Z,8.20
2022-10-21T18:06:43.524Z,5.63
2022-10-21T18:09:10.416Z,11.07
2022-10-21T18:11:37.536Z,7.33
2022-10-21T18:14:04.779Z,19.00
2022-10-21T18:16:31.576Z,9.60
2022-10-21T18:19:01.804Z,7.87
2022-10-21T18:21:30.416Z,7.00
2022-10-21T18:23:57.235Z,7.87
2022-10-21T18:26:27.491Z,11.53
2022-10-21T18:28:57.512Z,9.50
2022-10-21T18:31:28.011Z,14.50
2022-10-21T18:33:55.934Z,22.50
2022-10-21T18:36:23.633Z,7.13
2022-10-21T18:38:50.632Z,11.17
2022-10-21T18:41:20.642Z,10.63
2022-10-21T18:43:56.180Z,9.67
2022-10-21T18:46:23.814Z,14.17
2022-10-21T18:48:51.037Z,8.70
2022-10-21T18:51:19.413Z,9.63
2022-10-21T18:53:49.873Z,7.57
2022-10-21T18:56:20.133Z,9.80
2022-10-21T18:58:46.934Z,7.40
2022-10-21T19:01:17.036Z,8.60
2022-10-21T19:03:44.790Z,11.70
2022-10-21T19:06:36.022Z,9.93
2022-10-21T19:09:06.241Z,16.10
2022-10-21T19:11:33.234Z,12.37
2022-10-21T19:14:00.015Z,10.13
2022-10-21T19:16:26.943Z,12.67
2022-10-21T19:18:54.736Z,18.53
2022-10-21T19:21:22.531Z,10.87
2022-10-21T19:23:50.908Z,13.87
2022-10-21T19:26:21.041Z,8.43
2022-10-21T19:28:49.916Z,7.77
2022-10-21T19:31:18.336Z,9.93
2022-10-21T19:33:45.095Z,13.17
2022-10-21T19:36:11.882Z,8.37
2022-10-21T19:38:44.084Z,12.60
2022-10-21T19:41:15.377Z,10.37
2022-10-21T19:43:42.571Z,15.87
2022-10-21T19:46:10.744Z,11.47
2022-10-21T19:48:37.786Z,9.57
2022-10-21T19:51:05.149Z,8.97
2022-10-21T19:53:34.951Z,12.37
2022-10-21T19:56:04.163Z,9.90
2022-10-21T19:58:31.558Z,16.50
2022-10-21T20:01:09.108Z,10.60
2022-10-21T20:03:40.583Z,7.40
2022-10-21T20:06:16.909Z,12.33
2022-10-21T20:08:43.987Z,17.03
2022-10-21T20:11:16.604Z,8.20
2022-10-21T20:13:44.348Z,7.03
2022-10-21T20:16:16.738Z,13.20
2022-10-21T20:18:43.732Z,9.33
2022-10-21T20:21:10.787Z,10.93
2022-10-21T20:23:37.486Z,7.33
2022-10-21T20:26:04.471Z,9.30
2022-10-21T20:28:31.922Z,11.87
2022-10-21T20:31:10.289Z,8.20
2022-10-21T20:33:41.040Z,17.63
2022-10-21T20:36:12.340Z,9.33
2022-10-21T20:38:39.252Z,17.67
2022-10-21T20:41:09.104Z,10.30
2022-10-21T20:43:37.430Z,13.33
2022-10-21T20:46:06.350Z,9.40
2022-10-21T20:48:34.414Z,18.83
2022-10-21T20:51:06.858Z,14.83
2022-10-21T20:53:34.820Z,11.80
2022-10-21T20:56:03.669Z,9.53
2022-10-21T20:58:33.167Z,18.43
2022-10-21T21:01:10.354Z,8.00
2022-10-21T21:03:39.146Z,12.20
2022-10-21T21:06:07.059Z,23.53
2022-10-21T21:08:41.483Z,8.03
2022-10-21T21:11:21.017Z,10.07
2022-10-21T21:13:48.157Z,13.33
2022-10-21T21:16:17.797Z,16.23
2022-10-21T21:18:50.279Z,19.10
2022-10-21T21:21:19.263Z,8.93
2022-10-21T21:23:46.413Z,12.50
2022-10-21T21:26:14.485Z,12.17
2022-10-21T21:28:41.449Z,11.10
2022-10-21T21:31:10.340Z,12.97
2022-10-21T21:33:37.311Z,9.03
2022-10-21T21:36:04.851Z,8.07
2022-10-21T21:38:33.622Z,8.60
2022-10-21T21:41:01.051Z,10.17
2022-10-21T21:43:29.707Z,8.43
2022-10-21T21:45:56.692Z,9.83
2022-10-21T21:48:23.648Z,16.30
2022-10-21T21:50:50.791Z,10.90
2022-10-21T21:53:19.974Z,9.07
2022-10-21T21:55:47.000Z,10.20
2022-10-21T21:58:14.243Z,6.77
2022-10-21T22:00:40.976Z,6.50
2022-10-21T22:03:07.666Z,9.87
2022-10-21T22:05:34.901Z,7.47
2022-10-21T22:08:02.320Z,10.13
2022-10-21T22:10:29.445Z,12.80
2022-10-21T22:12:56.516Z,13.23
2022-10-21T22:15:50.689Z,9.73
2022-10-21T22:18:11.360Z,12.17
2022-10-21T22:20:40.360Z,14.67
2022-10-21T22:23:07.084Z,7.83
2022-10-21T22:25:33.796Z,8.57
2022-10-21T22:28:00.479Z,7.83
2022-10-21T22:30:27.180Z,8.60
2022-10-21T22:32:53.892Z,14.33
2022-10-21T22:35:20.663Z,13.97
2022-10-21T22:37:47.370Z,12.30
2022-10-21T22:40:14.034Z,11.60
2022-10-21T22:42:40.760Z,9.80
2022-10-21T22:45:08.020Z,12.33
2022-10-21T22:47:35.054Z,12.33
2022-10-21T22:50:01.812Z,9.30
2022-10-21T22:52:28.528Z,11.43
2022-10-21T22:54:55.242Z,9.83
2022-10-21T22:57:21.924Z,12.07
2022-10-21T22:59:53.053Z,6.67
2022-10-21T23:02:20.167Z,9.80
2022-10-21T23:04:46.837Z,11.63
2022-10-21T23:07:13.853Z,12.57
2022-10-21T23:09:40.548Z,9.57
2022-10-21T23:12:07.291Z,9.47
2022-10-21T23:14:34.059Z,9.97
2022-10-21T23:17:00.723Z,14.10
2022-10-21T23:19:27.550Z,9.43
2022-10-21T23:21:54.269Z,10.03
2022-10-21T23:24:21.304Z,17.47
2022-10-21T23:26:48.016Z,10.23
2022-10-21T23:29:14.767Z,12.00
2022-10-21T23:31:41.562Z,8.97
2022-10-21T23:34:09.330Z,9.07
2022-10-21T23:36:36.531Z,12.33
2022-10-21T23:39:03.725Z,9.03
2022-10-21T23:41:30.408Z,11.90
2022-10-21T23:43:57.151Z,11.60
2022-10-21T23:46:24.226Z,11.20
2022-10-21T23:48:50.976Z,10.90
2022-10-21T23:51:17.851Z,9.80
2022-10-21T23:53:45.400Z,10.83
2022-10-21T23:56:12.130Z,12.60
2022-10-21T23:58:38.867Z,9.50
